This is the latest recevied weather packets stored in our database for station/object PY2FLB-13. If no packets are shown the sender has not sent any weather packets the latest 10 day(s).
| Time | Temp. | Humidity | Pressure | Rain* | Wind** | Luminosity | Snow |
|---|---|---|---|---|---|---|---|
| 1778065069 | 22.78° C | 57% | 1019.1 hPa | - | - | - | - |
| 1778064769 | 22.22° C | 58% | 1019.1 hPa | - | - | - | - |
| 1778064469 | 22.78° C | 57% | 1019 hPa | - | - | - | - |
| 1778064170 | 22.22° C | 58% | 1019.1 hPa | - | - | - | - |
| 1778063869 | 22.22° C | 59% | 1019.1 hPa | - | - | - | - |
| 1778063569 | 22.22° C | 59% | 1019 hPa | - | - | - | - |
| 1778063269 | 22.22° C | 59% | 1018.9 hPa | - | - | - | - |
| 1778062969 | 22.22° C | 59% | 1018.9 hPa | - | - | - | - |
| 1778062669 | 22.22° C | 59% | 1018.9 hPa | - | - | - | - |
| 1778062369 | 21.67° C | 60% | 1019 hPa | - | - | - | - |
| 1778062069 | 21.67° C | 61% | 1019 hPa | - | - | - | - |
| 1778061769 | 22.22° C | 59% | 1018.8 hPa | - | - | - | - |
| 1778061469 | 22.22° C | 59% | 1018.7 hPa | - | - | - | - |
| 1778061169 | 21.67° C | 61% | 1018.9 hPa | - | - | - | - |
| 1778060869 | 22.22° C | 58% | 1018.6 hPa | - | - | - | - |
| 1778060569 | 22.22° C | 59% | 1018.5 hPa | - | - | - | - |
| 1778060269 | 22.22° C | 59% | 1018.5 hPa | - | - | - | - |
| 1778059970 | 22.78° C | 57% | 1018.1 hPa | - | - | - | - |
| 1778059670 | 22.78° C | 57% | 1018.1 hPa | - | - | - | - |
| 1778059369 | 21.67° C | 59% | 1018.2 hPa | - | - | - | - |
| 1778059069 | 21.67° C | 60% | 1018.1 hPa | - | - | - | - |
| 1778058769 | 22.22° C | 58% | 1017.8 hPa | - | - | - | - |
| 1778058469 | 22.22° C | 59% | 1017.9 hPa | - | - | - | - |
| 1778058169 | 21.67° C | 60% | 1017.9 hPa | - | - | - | - |
| 1778057869 | 21.67° C | 60% | 1017.9 hPa | - | - | - | - |
* Rain since midnight (hover to see other rain measurements)
** Current wind speed in m/s (hover to see current wind gust speed)